createdAt,value
2022-10-10T00:01:32.457Z,81.65
2022-10-10T00:04:01.996Z,658.25
2022-10-10T00:06:33.238Z,499.90
2022-10-10T00:09:04.149Z,473.08
2022-10-10T00:11:32.593Z,430.92
2022-10-10T00:14:01.308Z,155.65
2022-10-10T00:16:29.285Z,139.57
2022-10-10T00:18:57.646Z,231.25
2022-10-10T00:21:25.642Z,212.00
2022-10-10T00:23:53.610Z,351.70
2022-10-10T00:26:21.716Z,419.85
2022-10-10T00:28:49.886Z,265.75
2022-10-10T00:31:18.031Z,111.53
2022-10-10T00:33:46.594Z,148.10
2022-10-10T00:36:14.720Z,99.28
2022-10-10T00:38:43.311Z,82.18
2022-10-10T00:41:11.152Z,73.38
2022-10-10T00:43:39.387Z,74.88
2022-10-10T00:46:07.060Z,72.47
2022-10-10T00:48:37.871Z,75.05
2022-10-10T00:51:17.398Z,70.80
2022-10-10T00:53:49.065Z,67.82
2022-10-10T00:56:20.879Z,68.78
2022-10-10T00:58:51.663Z,61.55
2022-10-10T01:01:20.227Z,58.42
2022-10-10T01:03:48.709Z,71.70
2022-10-10T01:06:16.569Z,71.80
2022-10-10T01:08:45.124Z,68.05
2022-10-10T01:11:38.403Z,62.47
2022-10-10T01:14:37.659Z,64.55
2022-10-10T01:17:11.488Z,63.00
2022-10-10T01:20:01.618Z,67.82
2022-10-10T01:22:41.383Z,64.63
2022-10-10T01:25:37.433Z,63.13
2022-10-10T01:28:31.020Z,63.17
2022-10-10T01:33:39.011Z,64.15
2022-10-10T01:36:16.877Z,68.43
2022-10-10T01:39:08.864Z,61.70
2022-10-10T01:41:56.973Z,62.15
2022-10-10T01:44:24.923Z,58.38
2022-10-10T01:46:52.826Z,58.72
2022-10-10T01:49:24.368Z,59.80
2022-10-10T01:52:16.467Z,56.85
2022-10-10T01:55:02.828Z,65.70
2022-10-10T01:57:53.309Z,61.70
2022-10-10T02:00:21.237Z,53.50
2022-10-10T02:03:08.559Z,62.17
2022-10-10T02:05:41.653Z,61.92
2022-10-10T02:08:27.094Z,62.03
2022-10-10T02:11:06.782Z,55.40
2022-10-10T02:14:00.805Z,60.30
2022-10-10T02:16:32.598Z,56.35
2022-10-10T02:19:01.570Z,61.60
2022-10-10T02:21:30.068Z,55.67
2022-10-10T02:24:01.950Z,58.88
2022-10-10T02:26:32.025Z,51.38
2022-10-10T02:29:01.802Z,60.08
2022-10-10T02:31:38.409Z,62.30
2022-10-10T02:34:11.261Z,62.15
2022-10-10T02:36:40.681Z,63.25
2022-10-10T02:39:10.522Z,59.17
2022-10-10T02:41:38.651Z,57.25
2022-10-10T02:44:07.583Z,55.22
2022-10-10T02:46:35.335Z,59.33
2022-10-10T02:49:03.373Z,66.55
2022-10-10T02:51:31.590Z,69.90
2022-10-10T02:54:00.155Z,59.92
2022-10-10T02:56:28.083Z,63.70
2022-10-10T02:58:56.390Z,66.25
2022-10-10T03:01:24.426Z,61.22
2022-10-10T03:03:52.934Z,66.05
2022-10-10T03:06:20.819Z,60.63
2022-10-10T03:08:48.855Z,68.07
2022-10-10T03:11:16.589Z,77.15
2022-10-10T03:13:44.890Z,68.82
2022-10-10T03:16:13.424Z,67.80
2022-10-10T03:18:41.770Z,77.57
2022-10-10T03:21:09.903Z,71.22
2022-10-10T03:23:37.834Z,60.17
2022-10-10T03:26:06.294Z,64.93
2022-10-10T03:28:34.237Z,63.03
2022-10-10T03:31:02.674Z,59.67
2022-10-10T03:33:30.615Z,73.18
2022-10-10T03:35:59.149Z,76.90
2022-10-10T03:38:27.064Z,65.38
2022-10-10T03:40:55.612Z,71.45
2022-10-10T03:43:23.709Z,74.78
2022-10-10T03:45:51.795Z,76.68
2022-10-10T03:48:23.066Z,71.95
2022-10-10T03:50:51.325Z,78.80
2022-10-10T03:53:19.401Z,72.35
2022-10-10T03:55:47.655Z,82.53
2022-10-10T03:58:18.005Z,77.95
2022-10-10T04:00:59.413Z,66.78
2022-10-10T04:03:27.316Z,63.42
2022-10-10T04:05:56.018Z,73.07
2022-10-10T04:08:25.108Z,70.38
2022-10-10T04:10:55.061Z,75.10
2022-10-10T04:13:23.794Z,74.25
2022-10-10T04:15:53.507Z,69.03
2022-10-10T04:18:22.029Z,69.22
2022-10-10T04:20:50.707Z,71.90
2022-10-10T04:23:18.368Z,71.03
2022-10-10T04:25:48.243Z,82.22
2022-10-10T04:28:16.987Z,73.20
2022-10-10T04:30:45.241Z,64.97
2022-10-10T04:33:12.969Z,65.65
2022-10-10T04:35:41.534Z,67.22
2022-10-10T04:38:09.655Z,86.32
2022-10-10T04:40:38.359Z,67.50
2022-10-10T04:43:06.051Z,70.95
2022-10-10T04:45:37.410Z,68.93
2022-10-10T04:48:05.715Z,73.35
2022-10-10T04:50:33.774Z,78.97
2022-10-10T04:53:01.661Z,84.18
2022-10-10T04:55:30.012Z,72.45
2022-10-10T04:57:58.664Z,71.45
2022-10-10T05:00:27.311Z,77.88
2022-10-10T05:02:55.422Z,78.35
2022-10-10T05:05:24.164Z,74.07
2022-10-10T05:07:55.533Z,80.80
2022-10-10T05:10:25.743Z,72.45
2022-10-10T05:12:53.947Z,74.15
2022-10-10T05:15:23.213Z,101.72
2022-10-10T05:17:51.198Z,92.25
2022-10-10T05:20:20.266Z,73.47
2022-10-10T05:22:48.099Z,69.22
2022-10-10T05:25:16.661Z,80.32
2022-10-10T05:27:44.680Z,75.18
2022-10-10T05:30:13.343Z,90.20
2022-10-10T05:32:41.423Z,88.60
2022-10-10T05:35:10.011Z,85.65
2022-10-10T05:37:38.311Z,85.95
2022-10-10T05:40:07.086Z,89.32
2022-10-10T05:42:35.387Z,137.95
2022-10-10T05:45:04.585Z,142.65
2022-10-10T05:47:32.445Z,200.15
2022-10-10T05:50:00.833Z,122.20
2022-10-10T05:52:29.390Z,132.48
2022-10-10T05:54:58.135Z,100.70
2022-10-10T05:57:26.089Z,92.95
2022-10-10T05:59:54.460Z,57.67
2022-10-10T06:02:22.129Z,56.45
2022-10-10T06:04:50.858Z,51.05
2022-10-10T06:07:18.835Z,47.45
2022-10-10T06:09:47.364Z,46.63
2022-10-10T06:12:15.315Z,46.08
2022-10-10T06:14:43.449Z,53.08
2022-10-10T06:17:13.714Z,51.05
2022-10-10T06:19:43.868Z,42.70
2022-10-10T06:22:12.244Z,50.35
2022-10-10T06:24:40.155Z,43.38
2022-10-10T06:27:07.889Z,59.90
2022-10-10T06:29:36.070Z,48.58
2022-10-10T06:32:03.791Z,44.88
2022-10-10T06:34:32.082Z,42.25
2022-10-10T06:36:59.944Z,38.47
2022-10-10T06:39:28.356Z,36.25
2022-10-10T06:41:57.011Z,33.00
2022-10-10T06:44:27.926Z,38.20
2022-10-10T06:46:55.785Z,32.42
2022-10-10T06:49:24.994Z,34.60
2022-10-10T06:51:52.915Z,30.23
2022-10-10T06:54:21.290Z,31.77
2022-10-10T06:56:49.109Z,29.90
2022-10-10T06:59:17.078Z,32.75
2022-10-10T07:01:45.536Z,27.08
2022-10-10T07:04:13.818Z,27.50
2022-10-10T07:06:41.584Z,29.67
2022-10-10T07:09:10.080Z,29.95
2022-10-10T07:11:37.811Z,28.63
2022-10-10T07:14:05.851Z,35.95
2022-10-10T07:16:34.315Z,30.00
2022-10-10T07:19:02.806Z,30.58
2022-10-10T07:21:30.661Z,24.02
2022-10-10T07:23:58.627Z,28.77
2022-10-10T07:26:28.542Z,25.10
2022-10-10T07:28:56.711Z,28.08
2022-10-10T07:31:24.571Z,29.00
2022-10-10T07:33:53.076Z,22.45
2022-10-10T07:36:21.307Z,29.00
2022-10-10T07:38:53.362Z,29.00
2022-10-10T07:41:21.972Z,27.90
2022-10-10T07:43:55.564Z,26.38
2022-10-10T07:46:24.329Z,30.52
2022-10-10T07:48:52.379Z,27.70
2022-10-10T07:51:20.781Z,28.00
2022-10-10T07:53:48.745Z,31.17
2022-10-10T07:56:17.071Z,23.80
2022-10-10T07:58:45.161Z,27.60
2022-10-10T08:01:13.887Z,24.65
2022-10-10T08:03:42.319Z,24.73
2022-10-10T08:06:13.960Z,23.48
2022-10-10T08:08:50.806Z,25.90
2022-10-10T08:11:21.848Z,26.25
2022-10-10T08:13:50.991Z,22.20
2022-10-10T08:16:20.633Z,21.25
2022-10-10T08:18:48.984Z,23.27
2022-10-10T08:21:17.570Z,22.92
2022-10-10T08:23:45.632Z,23.80
2022-10-10T08:26:15.344Z,21.63
2022-10-10T08:28:44.735Z,20.48
2022-10-10T08:31:14.913Z,21.05
2022-10-10T08:33:45.984Z,25.33
2022-10-10T08:36:22.667Z,20.55
2022-10-10T08:38:53.552Z,18.75
2022-10-10T08:41:45.905Z,14.73
2022-10-10T08:44:40.259Z,19.58
2022-10-10T08:47:15.048Z,13.27
2022-10-10T08:49:50.448Z,16.13
2022-10-10T08:52:38.695Z,21.27
2022-10-10T08:55:14.411Z,12.65
2022-10-10T08:57:59.038Z,13.70
2022-10-10T09:00:33.433Z,14.32
2022-10-10T09:03:02.018Z,11.40
2022-10-10T09:05:49.991Z,25.17
2022-10-10T09:08:54.292Z,12.88
2022-10-10T09:11:50.684Z,12.85
2022-10-10T09:14:24.047Z,12.95
2022-10-10T09:17:35.021Z,14.55
2022-10-10T09:20:24.994Z,14.23
2022-10-10T09:23:11.697Z,12.80
2022-10-10T09:25:48.138Z,12.48
2022-10-10T09:28:39.270Z,13.05
2022-10-10T09:31:15.153Z,12.07
2022-10-10T09:33:52.005Z,12.60
2022-10-10T09:36:24.620Z,14.05
2022-10-10T09:39:02.440Z,12.55
2022-10-10T09:41:39.920Z,15.45
2022-10-10T09:44:11.655Z,11.32
2022-10-10T09:46:40.054Z,11.98
2022-10-10T09:49:08.271Z,13.73
2022-10-10T09:51:36.077Z,11.02
2022-10-10T09:54:05.513Z,13.15
2022-10-10T09:56:49.503Z,13.25
2022-10-10T09:59:39.840Z,11.88
2022-10-10T10:02:19.831Z,15.02
2022-10-10T10:04:49.433Z,11.38
2022-10-10T10:07:34.610Z,13.48
2022-10-10T10:10:12.245Z,11.65
2022-10-10T10:12:42.337Z,12.77
2022-10-10T10:15:24.775Z,14.25
2022-10-10T10:18:17.885Z,10.90
2022-10-10T10:20:48.427Z,10.68
2022-10-10T10:23:36.433Z,13.55
2022-10-10T10:26:09.862Z,10.45
2022-10-10T10:31:19.487Z,10.98
2022-10-10T10:34:08.760Z,13.55
2022-10-10T10:37:02.725Z,10.35
2022-10-10T10:39:52.067Z,10.98
2022-10-10T10:42:35.810Z,9.48
2022-10-10T10:45:19.110Z,17.98
2022-10-10T10:50:42.337Z,8.68
2022-10-10T10:53:32.719Z,11.07
2022-10-10T10:56:19.327Z,12.77
2022-10-10T11:02:09.425Z,8.57
2022-10-10T11:05:23.626Z,7.55
2022-10-10T11:08:20.234Z,11.98
2022-10-10T11:11:07.550Z,10.38
2022-10-10T11:13:52.873Z,12.02
2022-10-10T11:16:49.118Z,7.72
2022-10-10T11:19:38.264Z,9.68
2022-10-10T11:22:13.989Z,9.20
2022-10-10T11:24:54.471Z,20.98
2022-10-10T11:27:29.239Z,9.52
2022-10-10T11:29:59.969Z,7.90
2022-10-10T11:32:33.594Z,11.13
2022-10-10T11:35:14.109Z,9.45
2022-10-10T11:37:47.570Z,10.07
2022-10-10T11:40:41.463Z,7.00
2022-10-10T11:43:16.111Z,6.35
2022-10-10T11:45:53.612Z,9.68
2022-10-10T11:48:45.964Z,8.45
2022-10-10T11:51:46.089Z,6.78
2022-10-10T11:54:28.726Z,4.95
2022-10-10T11:57:01.033Z,7.90
2022-10-10T11:59:54.738Z,6.60
2022-10-10T12:02:37.215Z,6.47
2022-10-10T12:05:06.659Z,8.40
2022-10-10T12:07:44.006Z,12.63
2022-10-10T12:10:50.562Z,6.13
2022-10-10T12:13:30.272Z,4.95
2022-10-10T12:16:02.990Z,6.40
2022-10-10T12:19:16.775Z,5.03
2022-10-10T12:22:03.831Z,7.40
2022-10-10T12:25:10.057Z,8.25
2022-10-10T12:28:05.983Z,5.60
2022-10-10T12:30:34.256Z,7.53
2022-10-10T12:33:02.555Z,3.88
2022-10-10T12:35:39.835Z,6.45
2022-10-10T12:38:15.332Z,4.18
2022-10-10T12:41:13.950Z,7.03
2022-10-10T12:43:50.198Z,5.38
2022-10-10T12:46:29.649Z,7.07
2022-10-10T12:49:01.520Z,4.43
2022-10-10T12:51:30.464Z,6.43
2022-10-10T12:54:00.167Z,6.88
2022-10-10T12:56:46.554Z,3.10
2022-10-10T12:59:21.144Z,4.30
2022-10-10T13:02:02.422Z,7.75
2022-10-10T13:04:31.251Z,5.50
2022-10-10T13:07:00.945Z,8.60
2022-10-10T13:09:35.462Z,12.38
2022-10-10T13:12:06.019Z,3.85
2022-10-10T13:14:45.165Z,5.60
2022-10-10T13:17:32.570Z,9.40
2022-10-10T13:20:01.350Z,5.07
2022-10-10T13:22:30.977Z,5.30
2022-10-10T13:25:00.610Z,4.68
2022-10-10T13:27:32.733Z,7.63
2022-10-10T13:30:01.497Z,5.57
2022-10-10T13:32:33.463Z,6.90
2022-10-10T13:35:04.820Z,5.50
2022-10-10T13:37:33.173Z,6.57
2022-10-10T13:40:01.415Z,4.57
2022-10-10T13:42:38.733Z,4.85
2022-10-10T13:45:30.096Z,5.57
2022-10-10T13:48:02.143Z,7.43
2022-10-10T13:50:53.498Z,5.07
2022-10-10T13:53:27.783Z,7.22
2022-10-10T13:56:26.249Z,7.65
2022-10-10T13:58:58.381Z,6.43
2022-10-10T14:01:33.340Z,10.13
2022-10-10T14:04:26.311Z,6.10
2022-10-10T14:07:05.748Z,4.05
2022-10-10T14:09:40.341Z,5.47
2022-10-10T14:12:33.910Z,4.18
2022-10-10T14:15:03.193Z,3.58
2022-10-10T14:17:31.977Z,6.50
2022-10-10T14:20:00.053Z,4.50
2022-10-10T14:22:28.181Z,6.10
2022-10-10T14:24:56.023Z,6.43
2022-10-10T14:27:26.515Z,9.50
2022-10-10T14:29:57.888Z,4.90
2022-10-10T14:32:27.939Z,4.15
2022-10-10T14:34:55.669Z,4.53
2022-10-10T14:37:27.462Z,6.30
2022-10-10T14:39:56.235Z,3.67
2022-10-10T14:42:26.670Z,3.33
2022-10-10T14:44:55.146Z,4.60
2022-10-10T14:47:24.875Z,8.48
2022-10-10T14:49:53.719Z,3.33
2022-10-10T14:52:22.349Z,5.13
2022-10-10T14:54:50.133Z,5.40
2022-10-10T14:57:19.621Z,3.85
2022-10-10T14:59:50.062Z,4.97
2022-10-10T15:02:20.986Z,5.13
2022-10-10T15:04:49.719Z,7.43
2022-10-10T15:07:18.270Z,6.88
2022-10-10T15:10:11.211Z,3.65
2022-10-10T15:12:38.600Z,4.65
2022-10-10T15:15:08.705Z,6.22
2022-10-10T15:17:36.952Z,3.55
2022-10-10T15:20:07.415Z,4.55
2022-10-10T15:22:42.962Z,3.97
2022-10-10T15:25:11.380Z,7.10
2022-10-10T15:27:39.563Z,5.85
2022-10-10T15:30:08.231Z,6.68
2022-10-10T15:32:39.597Z,6.30
2022-10-10T15:35:08.550Z,4.78
2022-10-10T15:37:36.968Z,4.70
2022-10-10T15:40:05.893Z,6.60
2022-10-10T15:42:34.332Z,6.05
2022-10-10T15:45:02.742Z,8.10
2022-10-10T15:47:31.562Z,8.57
2022-10-10T15:49:59.455Z,7.63
2022-10-10T15:52:27.793Z,8.25
2022-10-10T15:54:55.915Z,8.43
2022-10-10T15:57:24.553Z,7.32
2022-10-10T15:59:52.385Z,7.07
2022-10-10T16:02:20.946Z,8.23
2022-10-10T16:04:48.885Z,7.30
2022-10-10T16:07:38.455Z,7.85
2022-10-10T16:10:05.682Z,7.57
2022-10-10T16:12:33.491Z,11.07
2022-10-10T16:15:06.049Z,7.85
2022-10-10T16:17:35.520Z,6.85
2022-10-10T16:20:04.210Z,8.05
2022-10-10T16:22:31.979Z,10.70
2022-10-10T16:27:48.872Z,6.35
2022-10-10T16:30:17.173Z,6.65
2022-10-10T16:32:44.952Z,9.77
2022-10-10T16:35:13.231Z,17.05
2022-10-10T16:37:41.715Z,11.27
2022-10-10T16:40:10.799Z,13.65
2022-10-10T16:42:39.223Z,12.63
2022-10-10T16:45:08.179Z,8.65
2022-10-10T16:47:36.684Z,8.20
2022-10-10T16:50:06.150Z,11.77
2022-10-10T16:52:38.351Z,12.45
2022-10-10T16:55:08.427Z,10.52
2022-10-10T16:57:36.700Z,11.43
2022-10-10T17:00:07.307Z,13.02
2022-10-10T17:02:36.076Z,14.10
2022-10-10T17:05:04.918Z,9.05
2022-10-10T17:07:32.762Z,9.63
2022-10-10T17:10:00.777Z,8.88
2022-10-10T17:12:28.903Z,12.27
2022-10-10T17:14:56.872Z,12.20
2022-10-10T17:17:25.231Z,11.98
2022-10-10T17:19:54.180Z,10.95
2022-10-10T17:22:22.107Z,9.55
2022-10-10T17:24:50.547Z,14.50
2022-10-10T17:27:19.144Z,10.95
2022-10-10T17:29:46.978Z,13.18
2022-10-10T17:32:14.791Z,15.30
2022-10-10T17:34:43.073Z,12.13
2022-10-10T17:37:10.897Z,16.10
2022-10-10T17:39:38.879Z,15.02
2022-10-10T17:42:07.063Z,12.98
2022-10-10T17:44:41.128Z,13.30
2022-10-10T17:47:11.764Z,11.15
2022-10-10T17:49:41.407Z,12.15
2022-10-10T17:52:09.519Z,13.38
2022-10-10T17:54:38.102Z,9.10
2022-10-10T17:57:06.430Z,15.02
2022-10-10T17:59:34.386Z,14.00
2022-10-10T18:02:02.988Z,15.07
2022-10-10T18:04:31.198Z,16.75
2022-10-10T18:06:59.161Z,20.88
2022-10-10T18:09:32.117Z,12.52
2022-10-10T18:12:01.071Z,14.85
2022-10-10T18:14:29.625Z,15.07
2022-10-10T18:16:58.199Z,14.93
2022-10-10T18:19:26.162Z,15.50
2022-10-10T18:21:54.159Z,14.70
2022-10-10T18:24:21.833Z,20.55
2022-10-10T18:26:50.348Z,17.20
2022-10-10T18:29:18.310Z,21.20
2022-10-10T18:31:45.752Z,14.23
2022-10-10T18:34:13.691Z,17.00
2022-10-10T18:36:42.613Z,16.13
2022-10-10T18:39:14.091Z,15.65
2022-10-10T18:41:41.918Z,19.83
2022-10-10T18:44:13.391Z,16.52
2022-10-10T18:46:41.052Z,23.30
2022-10-10T18:49:09.643Z,19.55
2022-10-10T18:51:37.620Z,19.08
2022-10-10T18:54:08.666Z,26.35
2022-10-10T18:56:38.267Z,21.83
2022-10-10T18:59:07.663Z,18.25
2022-10-10T19:01:36.881Z,20.63
2022-10-10T19:04:05.898Z,21.60
2022-10-10T19:06:34.081Z,16.75
2022-10-10T19:09:02.610Z,21.35
2022-10-10T19:11:33.462Z,27.25
2022-10-10T19:14:03.338Z,20.05
2022-10-10T19:16:31.426Z,18.40
2022-10-10T19:19:03.324Z,23.48
2022-10-10T19:21:33.818Z,18.35
2022-10-10T19:24:03.094Z,24.15
2022-10-10T19:26:34.312Z,20.40
2022-10-10T19:29:07.020Z,30.38
2022-10-10T19:31:36.409Z,21.47
2022-10-10T19:34:05.191Z,28.63
2022-10-10T19:36:36.152Z,24.52
2022-10-10T19:39:06.774Z,23.95
2022-10-10T19:41:35.086Z,32.83
2022-10-10T19:44:05.469Z,24.88
2022-10-10T19:46:37.147Z,29.23
2022-10-10T19:49:05.285Z,22.48
2022-10-10T19:51:32.909Z,21.20
2022-10-10T19:54:00.696Z,22.38
2022-10-10T19:56:28.209Z,24.70
2022-10-10T19:58:57.798Z,25.67
2022-10-10T20:01:29.546Z,27.45
2022-10-10T20:03:59.265Z,25.15
2022-10-10T20:06:27.750Z,24.00
2022-10-10T20:08:55.648Z,26.88
2022-10-10T20:11:23.724Z,20.73
2022-10-10T20:13:54.252Z,26.65
2022-10-10T20:16:23.419Z,22.50
2022-10-10T20:18:50.757Z,26.00
2022-10-10T20:21:24.535Z,25.98
2022-10-10T20:23:52.130Z,26.17
2022-10-10T20:26:21.859Z,24.58
2022-10-10T20:28:50.787Z,23.45
2022-10-10T20:31:23.857Z,29.90
2022-10-10T20:36:22.132Z,27.58
2022-10-10T20:39:06.636Z,23.98
2022-10-10T20:41:36.206Z,26.73
2022-10-10T20:44:05.937Z,27.42
2022-10-10T20:46:36.477Z,19.55
2022-10-10T20:49:06.670Z,24.83
2022-10-10T20:51:33.977Z,24.30
2022-10-10T20:54:03.878Z,23.95
2022-10-10T20:56:33.133Z,22.85
2022-10-10T20:59:01.113Z,25.30
2022-10-10T21:01:30.634Z,19.83
2022-10-10T21:03:58.933Z,21.92
2022-10-10T21:06:29.360Z,25.45
2022-10-10T21:08:56.979Z,22.63
2022-10-10T21:11:24.731Z,22.20
2022-10-10T21:13:56.585Z,21.58
2022-10-10T21:16:27.368Z,24.52
2022-10-10T21:18:57.836Z,25.20
2022-10-10T21:21:32.319Z,21.98
2022-10-10T21:24:01.268Z,22.75
2022-10-10T21:26:30.106Z,26.38
2022-10-10T21:28:59.771Z,19.30
2022-10-10T21:31:36.477Z,22.65
2022-10-10T21:34:07.211Z,24.80
2022-10-10T21:36:36.765Z,24.30
2022-10-10T21:39:07.019Z,24.65
2022-10-10T21:41:35.981Z,22.08
2022-10-10T21:44:04.264Z,24.20
2022-10-10T21:46:36.601Z,21.38
2022-10-10T21:49:07.368Z,23.00
2022-10-10T21:51:37.650Z,27.13
2022-10-10T21:54:07.082Z,27.25
2022-10-10T21:56:35.759Z,23.13
2022-10-10T21:59:05.154Z,21.30
2022-10-10T22:01:33.477Z,18.55
2022-10-10T22:04:03.516Z,17.20
2022-10-10T22:06:32.398Z,19.75
2022-10-10T22:09:02.024Z,23.48
2022-10-10T22:11:32.606Z,18.63
2022-10-10T22:14:02.695Z,16.55
2022-10-10T22:16:32.310Z,20.20
2022-10-10T22:19:00.868Z,18.98
2022-10-10T22:21:32.380Z,18.38
2022-10-10T22:24:02.419Z,26.02
2022-10-10T22:26:31.769Z,19.63
2022-10-10T22:29:00.136Z,21.02
2022-10-10T22:31:29.701Z,24.65
2022-10-10T22:33:58.285Z,19.30
2022-10-10T22:36:26.583Z,21.60
2022-10-10T22:38:55.232Z,18.00
2022-10-10T22:41:23.641Z,17.48
2022-10-10T22:43:52.209Z,16.25
2022-10-10T22:46:20.831Z,26.65
2022-10-10T22:48:48.752Z,19.20
2022-10-10T22:51:18.380Z,20.30
2022-10-10T22:53:48.147Z,19.42
2022-10-10T22:56:19.731Z,23.10
2022-10-10T22:58:49.649Z,17.30
2022-10-10T23:01:20.390Z,18.90
2022-10-10T23:03:48.273Z,17.77
2022-10-10T23:06:16.613Z,19.67
2022-10-10T23:08:44.466Z,15.80
2022-10-10T23:11:13.134Z,13.73
2022-10-10T23:13:41.395Z,21.27
2022-10-10T23:16:09.484Z,17.33
2022-10-10T23:18:38.060Z,19.92
2022-10-10T23:21:06.810Z,22.67
2022-10-10T23:23:35.030Z,17.88
2022-10-10T23:26:07.736Z,17.70
2022-10-10T23:28:37.439Z,15.07
2022-10-10T23:31:07.203Z,19.23
2022-10-10T23:33:37.147Z,16.80
2022-10-10T23:36:09.016Z,20.80
2022-10-10T23:38:38.147Z,18.35
2022-10-10T23:41:06.765Z,24.48
2022-10-10T23:43:35.050Z,16.00
2022-10-10T23:46:03.174Z,17.70
2022-10-10T23:48:31.617Z,17.50
2022-10-10T23:50:59.456Z,22.00
2022-10-10T23:53:27.253Z,17.30
2022-10-10T23:55:55.634Z,18.98
2022-10-10T23:58:23.526Z,18.20
